Latest Weather Observations for Dennes Point

IDT60901

Issued at 12:41 pm EST Sunday 26 June 2016 (issued every 10 minutes, with the page automatically refreshed every 10 minutes)

About weather observations | Map of Hobart area stations | Latest observations for Hobart area | Other Formats
Station Details ID: 094255 Name: DENNES POINT Lat: -43.06 Lon: 147.36 Height: 5.67 m
Data from the previous 72 hours. | See also: Recent months at Dennes Point
Date/Time
EST
Tmp

°C
App
Tmp
°C
Dew
Point
°C
Rel
Hum
%
Delta-T

°C
Wind Press
QNH
hPa
Press
MSL
hPa
Rain
since
9 am
mm
Dir
 
Spd
km/h
Gust
km/h
Spd
kts
Gust
kts
26/12:30pm 11.5 7.3 7.6 77 1.9 NNE 19 22 10 12 1011.4 1011.4 0.0
26/12:00pm 11.1 6.8 6.8 75 2.0 NNE 19 22 10 12 1012.2 1012.2 0.0
26/11:30am 11.3 6.8 7.0 75 2.0 NNE 20 26 11 14 1012.7 1012.7 0.0
26/11:00am 10.5 6.0 7.0 79 1.7 NNE 20 24 11 13 1013.4 1013.4 0.0
26/10:30am 10.4 6.8 6.7 78 1.7 N 15 20 8 11 1013.8 1013.8 0.0
26/10:00am 10.2 5.9 6.9 80 1.6 N 19 24 10 13 1014.1 1014.1 0.0
26/09:30am 10.1 6.9 7.0 81 1.5 N 13 17 7 9 1014.2 1014.2 0.0
26/09:00am 9.5 6.7 6.8 83 1.3 N 11 15 6 8 1014.3 1014.3 0.0
26/08:30am 8.9 7.4 6.7 86 1.0 N 4 7 2 4 1014.5 1014.5 0.0
26/08:00am 7.3 5.1 5.1 86 1.0 WSW 6 9 3 5 1014.6 1014.6 0.0
26/07:30am 7.2 5.0 5.3 88 0.8 SSW 6 7 3 4 1014.7 1014.7 0.0
26/07:00am 6.9 4.0 4.9 87 0.9 SSW 9 11 5 6 1014.6 1014.6 0.0
26/06:30am 8.1 6.7 5.7 85 1.1 N 2 6 1 3 1014.7 1014.7 0.0
26/06:00am 8.6 6.6 6.2 85 1.1 NNE 6 7 3 4 1014.3 1014.3 0.0
26/05:30am 8.1 6.7 5.4 83 1.2 NNW 2 4 1 2 1014.3 1014.3 0.0
26/05:00am 8.0 6.9 5.3 83 1.2 CALM 0 0 0 0 1014.3 1014.3 0.0
26/04:30am 8.4 6.3 5.7 83 1.2 NNW 6 9 3 5 1014.3 1014.3 0.0
26/04:00am 8.7 6.1 6.0 83 1.2 NNE 9 13 5 7 1014.3 1014.3 0.0
26/03:30am 8.8 6.6 6.1 83 1.2 N 7 9 4 5 1014.5 1014.5 0.0
26/03:00am 8.7 5.7 5.8 82 1.3 N 11 13 6 7 1014.9 1014.9 0.0
26/02:30am 9.0 5.6 6.1 82 1.3 N 13 15 7 8 1014.8 1014.8 0.0
26/02:00am 9.1 5.7 6.0 81 1.4 NNW 13 15 7 8 1015.0 1015.0 0.0
26/01:30am 9.5 6.2 6.2 80 1.5 NNW 13 17 7 9 1015.0 1015.0 0.0
26/01:00am 9.3 6.4 6.4 82 1.3 NE 11 15 6 8 1015.3 1015.3 0.0
26/12:30am 9.0 6.7 5.7 80 1.5 SE 7 11 4 6 1015.6 1015.6 0.0
26/12:00am 8.8 6.8 4.4 74 1.9 WSW 4 7 2 4 1015.5 1015.5 0.0
 
Date/Time
EST
Tmp

°C
App
Tmp
°C
Dew
Point
°C
Rel
Hum
%
Delta-T

°C
Wind Press
QNH
hPa
Press
MSL
hPa
Rain
since
9 am
mm
Dir
 
Spd
km/h
Gust
km/h
Spd
kts
Gust
kts
25/11:30pm 9.4 7.9 5.0 74 2.0 W 2 6 1 3 1015.7 1015.7 0.0
25/11:00pm 9.8 7.2 6.0 77 1.7 WNW 9 11 5 6 1015.8 1015.8 0.0
25/10:30pm 9.9 5.7 5.7 75 1.9 W 17 24 9 13 1015.9 1015.9 0.0
25/10:00pm 9.5 5.0 5.9 78 1.6 W 19 20 10 11 1015.9 1015.9 0.0
25/09:30pm 8.8 4.5 5.4 79 1.5 W 17 20 9 11 1016.1 1016.1 0.0
25/09:00pm 9.6 5.0 5.6 76 1.8 W 19 22 10 12 1016.3 1016.3 0.0
25/08:30pm 10.0 5.8 5.8 75 1.9 WNW 17 22 9 12 1016.4 1016.4 0.0
25/08:00pm 9.7 5.5 5.5 75 1.9 WNW 17 20 9 11 1016.6 1016.6 0.0
25/07:30pm 9.9 5.7 5.5 74 2.0 WNW 17 22 9 12 1016.5 1016.5 0.0
25/07:00pm 9.0 5.7 4.6 74 1.9 WSW 11 15 6 8 1016.6 1016.6 0.0
25/06:30pm 9.4 6.5 4.4 71 2.2 WSW 9 15 5 8 1016.6 1016.6 0.0
25/06:00pm 10.1 6.5 4.9 70 2.3 WNW 13 17 7 9 1016.5 1016.5 0.0
25/05:30pm 10.2 6.6 5.2 71 2.3 WNW 13 17 7 9 1016.3 1016.3 0.0
25/05:00pm 9.9 7.4 4.9 71 2.2 WNW 7 13 4 7 1016.3 1016.3 0.0
25/04:30pm 9.9 5.5 4.9 71 2.2 WNW 17 22 9 12 1016.1 1016.1 0.0
25/04:00pm 10.4 6.0 4.8 68 2.5 WNW 17 24 9 13 1016.0 1016.0 0.0
25/03:30pm 10.7 5.7 4.6 66 2.7 WNW 20 26 11 14 1015.9 1015.9 0.0
25/03:00pm 10.5 6.0 4.0 64 2.9 W 17 20 9 11 1016.0 1016.0 0.0
25/02:30pm 10.0 5.4 3.7 65 2.8 W 17 20 9 11 1016.0 1016.0 0.0
25/02:00pm 10.3 5.7 3.8 64 2.9 W 17 24 9 13 1016.2 1016.2 0.0
25/01:30pm 10.8 6.2 3.8 62 3.1 W 17 24 9 13 1016.4 1016.4 0.0
25/01:00pm 10.7 6.1 3.5 61 3.2 W 17 24 9 13 1016.5 1016.5 0.0
25/12:30pm 10.4 6.1 3.2 61 3.1 W 15 20 8 11 1016.8 1016.8 0.0
25/12:00pm 10.1 5.4 3.2 62 3.0 WSW 17 20 9 11 1016.8 1016.8 0.0
25/11:30am 9.7 4.9 2.8 62 2.9 W 17 22 9 12 1017.1 1017.1 0.0
25/11:00am 9.2 4.1 2.8 64 2.7 WNW 19 22 10 12 1017.0 1017.0 0.0
25/10:30am 8.8 3.0 2.4 64 2.7 WNW 22 30 12 16 1017.1 1017.1 0.0
25/10:00am 8.5 3.1 2.3 65 2.6 W 20 26 11 14 1016.8 1016.8 0.0
25/09:30am 7.6 2.3 2.1 68 2.3 W 19 24 10 13 1016.6 1016.6 0.0
25/09:00am 7.1 1.8 2.0 70 2.1 WNW 19 22 10 12 1016.5 1016.5 0.2
25/08:30am 6.9 -0.1 2.0 71 2.0 WSW 28 35 15 19 1016.2 1016.2 0.2
25/08:19am 7.0 1.2 2.3 72 1.9 WSW 22 35 12 19 1016.1 1016.1 0.2
25/08:00am 5.5 1.5 0.7 71 1.9 W 11 17 6 9 1016.0 1016.0 0.2
25/07:30am 5.7 1.4 0.7 70 1.9 W 13 17 7 9 1015.7 1015.7 0.2
25/07:00am 5.5 1.5 0.7 71 1.9 SW 11 15 6 8 1015.5 1015.5 0.2
25/06:30am 5.9 0.3 1.2 72 1.9 WSW 20 26 11 14 1015.1 1015.1 0.2
25/06:00am 5.8 1.2 1.3 73 1.8 WSW 15 24 8 13 1014.8 1014.8 0.2
25/05:30am 5.3 0.5 0.5 71 1.9 SSW 15 19 8 10 1014.4 1014.4 0.2
25/05:00am 6.0 2.1 1.0 70 2.0 W 11 19 6 10 1014.2 1014.2 0.2
25/04:30am 6.0 0.9 0.8 69 2.0 W 17 22 9 12 1013.7 1013.7 0.2
25/04:00am 5.8 0.1 0.8 70 2.0 W 20 30 11 16 1013.3 1013.3 0.2
25/03:30am 5.8 0.4 1.0 71 1.9 WSW 19 26 10 14 1013.0 1013.0 0.2
25/03:00am 6.1 0.7 1.2 71 1.9 W 19 30 10 16 1012.9 1012.9 0.2
25/02:30am 6.0 0.5 0.8 69 2.0 W 19 22 10 12 1012.5 1012.5 0.2
25/02:00am 5.9 -0.1 1.1 71 1.9 W 22 32 12 17 1012.3 1012.3 0.2
25/01:30am 5.5 1.6 1.2 74 1.7 W 11 20 6 11 1011.8 1011.8 0.2
25/01:00am 5.6 0.6 1.3 74 1.7 WNW 17 20 9 11 1011.5 1011.5 0.2
25/12:30am 5.8 0.2 1.5 74 1.7 W 20 32 11 17 1011.0 1011.0 0.2
25/12:00am 5.8 0.5 1.9 76 1.6 WSW 19 28 10 15 1010.9 1010.9 0.2
 
Date/Time
EST
Tmp

°C
App
Tmp
°C
Dew
Point
°C
Rel
Hum
%
Delta-T

°C
Wind Press
QNH
hPa
Press
MSL
hPa
Rain
since
9 am
mm
Dir
 
Spd
km/h
Gust
km/h
Spd
kts
Gust
kts
24/11:30pm 5.6 0.6 1.5 75 1.6 W 17 24 9 13 1010.7 1010.7 0.2
24/11:00pm 5.5 0.5 1.6 76 1.6 WNW 17 20 9 11 1010.2 1010.2 0.2
24/10:30pm 5.4 1.2 1.7 77 1.5 W 13 19 7 10 1010.0 1010.0 0.2
24/10:00pm 4.5 1.0 1.0 78 1.4 SW 9 13 5 7 1009.9 1009.9 0.2
24/09:30pm 4.6 1.1 1.1 78 1.4 SW 9 11 5 6 1009.5 1009.5 0.2
24/09:00pm 5.4 1.2 1.5 76 1.6 SW 13 22 7 12 1009.0 1009.0 0.2
24/08:30pm 4.8 0.9 1.3 78 1.4 SW 11 19 6 10 1008.4 1008.4 0.2
24/08:00pm 5.3 -0.1 1.4 76 1.5 WSW 19 28 10 15 1007.9 1007.9 0.2
24/07:30pm 6.5 0.2 1.6 71 2.0 SW 24 33 13 18 1007.4 1007.4 0.0
24/07:00pm 6.4 1.8 1.5 71 2.0 WSW 15 20 8 11 1006.6 1006.6 0.0
24/06:30pm 6.2 0.7 1.7 73 1.8 W 20 26 11 14 1005.4 1005.4 0.0
24/06:00pm 6.5 0.7 2.2 74 1.8 WSW 22 28 12 15 1004.8 1004.8 0.0
24/05:30pm 6.7 0.8 1.8 71 2.0 WSW 22 30 12 16 1004.4 1004.4 0.0
24/05:00pm 6.9 0.6 1.4 68 2.2 W 24 30 13 16 1003.7 1003.7 0.0
24/04:30pm 7.4 1.1 1.5 66 2.4 W 24 33 13 18 1003.0 1003.0 0.0
24/04:00pm 7.8 3.3 1.9 66 2.4 WSW 15 20 8 11 1002.2 1002.2 0.0
24/03:30pm 8.1 3.1 1.3 62 2.8 SW 17 22 9 12 1001.5 1001.6 0.0
24/03:00pm 8.3 4.5 1.5 62 2.8 SW 11 15 6 8 1000.9 1001.0 0.0
24/02:30pm 9.1 5.0 2.2 62 2.9 W 13 17 7 9 1000.2 1000.3 0.0
24/02:00pm 9.1 3.8 2.0 61 3.0 W 19 24 10 13 999.8 999.9 0.0
24/01:30pm 9.3 3.9 2.2 61 3.0 WSW 20 28 11 15 999.5 999.6 0.0
24/01:00pm 9.5 6.4 1.4 57 3.4 SSW 7 13 4 7 999.2 999.3 0.0
24/12:30pm 9.4 6.5 1.3 57 3.3 NW 6 13 3 7 998.7 998.8 0.0
24/12:00pm 9.0 6.0 1.7 60 3.0 W 7 9 4 5 998.7 998.8 0.0
24/11:30am 8.6 4.8 1.7 62 2.8 WSW 11 15 6 8 998.5 998.6 0.0
24/11:00am 8.9 6.4 1.6 60 3.0 W 4 7 2 4 998.2 998.3 0.0
24/10:30am 8.7 7.0 1.8 62 2.9 CALM 0 2 0 1 998.0 998.1 0.0
24/10:00am 7.7 4.9 1.8 66 2.4 WSW 6 11 3 6 997.5 997.6 0.0
24/09:30am 7.3 3.1 1.4 66 2.4 W 13 17 7 9 996.9 997.0 0.0
24/09:00am 6.9 3.5 1.8 70 2.1 WSW 9 13 5 7 996.6 996.7 1.0
24/08:30am 6.5 3.0 1.4 70 2.0 WSW 9 13 5 7 996.6 996.7 1.0
24/08:00am 6.8 3.0 1.7 70 2.1 WNW 11 17 6 9 996.4 996.5 1.0
24/07:30am 6.7 3.8 1.6 70 2.1 NW 6 9 3 5 996.0 996.0 1.0
24/07:00am 6.3 2.9 1.6 72 1.9 WNW 9 13 5 7 995.9 995.9 1.0
24/06:30am 5.5 1.6 1.4 75 1.6 WSW 11 13 6 7 995.6 995.6 1.0
24/06:00am 6.8 3.4 1.9 71 2.0 NNW 9 11 5 6 995.1 995.1 1.0
24/05:30am 6.4 2.3 2.5 76 1.6 WNW 13 17 7 9 994.9 994.9 1.0
24/05:00am 4.3 1.2 1.2 80 1.2 SW 7 11 4 6 994.4 994.4 1.0
24/04:30am 6.0 3.5 1.3 72 1.9 NNW 4 9 2 5 994.2 994.2 1.0
24/04:00am 6.1 4.0 1.8 74 1.8 S 2 6 1 3 993.7 993.7 1.0
24/03:30am 4.3 1.8 1.3 81 1.2 S 4 7 2 4 993.6 993.6 1.0
24/03:00am 5.0 1.9 1.5 78 1.4 W 7 11 4 6 993.5 993.5 1.0
24/02:30am 6.3 3.4 1.6 72 1.9 ESE 6 7 3 4 993.1 993.1 1.0
24/02:00am 5.5 3.7 1.2 74 1.7 CALM 0 0 0 0 992.9 992.9 1.0
24/01:30am 5.6 2.1 1.2 73 1.7 W 9 11 5 6 992.7 992.7 1.0
24/01:00am 6.6 4.1 1.3 69 2.1 NW 4 7 2 4 992.3 992.3 1.0
24/12:30am 6.3 3.2 1.4 71 2.0 WNW 7 13 4 7 992.4 992.4 1.0
24/12:00am 6.8 2.3 2.1 72 1.9 W 15 17 8 9 992.7 992.7 1.0
 
Date/Time
EST
Tmp

°C
App
Tmp
°C
Dew
Point
°C
Rel
Hum
%
Delta-T

°C
Wind Press
QNH
hPa
Press
MSL
hPa
Rain
since
9 am
mm
Dir
 
Spd
km/h
Gust
km/h
Spd
kts
Gust
kts
23/11:30pm 7.1 2.6 2.0 70 2.1 WNW 15 19 8 10 992.5 992.5 1.0
23/11:00pm 7.2 3.5 2.5 72 2.0 WNW 11 15 6 8 992.4 992.4 1.0
23/10:30pm 7.5 4.2 2.6 71 2.0 NNW 9 15 5 8 992.0 992.0 1.0
23/10:00pm 7.6 4.9 2.9 72 2.0 N 6 7 3 4 992.1 992.1 1.0
23/09:30pm 7.4 4.6 2.9 73 1.9 WNW 7 13 4 7 991.9 991.9 1.0
23/09:00pm 7.7 3.8 3.2 73 1.9 WNW 13 17 7 9 991.6 991.6 1.0
23/08:30pm 7.7 4.2 3.7 76 1.7 WNW 11 15 6 8 991.1 991.1 1.0
23/08:00pm 6.8 4.3 3.6 80 1.4 W 6 9 3 5 990.5 990.5 1.0
23/07:30pm 7.6 5.4 3.6 76 1.7 NW 4 6 2 3 990.6 990.6 1.0
23/07:00pm 8.0 5.3 3.8 75 1.8 NW 7 11 4 6 990.4 990.4 1.0
23/06:30pm 8.0 5.4 4.0 76 1.7 NNW 7 9 4 5 990.1 990.1 1.0
23/06:00pm 7.7 5.3 4.1 78 1.6 WNW 6 7 3 4 989.9 989.9 1.0
23/05:30pm 7.7 5.6 4.1 78 1.6 W 4 6 2 3 989.9 989.9 1.0
23/05:00pm 7.8 5.3 3.8 76 1.7 WNW 6 9 3 5 990.1 990.1 0.8
23/04:30pm 7.7 5.0 3.7 76 1.7 W 7 9 4 5 990.0 990.0 0.8
23/04:00pm 7.8 4.0 3.8 76 1.7 W 13 17 7 9 989.8 989.8 0.8
23/03:30pm 7.6 2.6 3.6 76 1.7 W 19 26 10 14 990.0 990.0 0.6
23/03:00pm 8.8 3.3 4.2 73 2.0 WSW 22 33 12 18 989.9 989.9 0.0
23/02:30pm 9.5 3.6 4.1 69 2.4 SW 24 39 13 21 989.3 989.3 0.0
23/02:26pm 9.9 5.4 4.3 68 2.5 SW 17 39 9 21 989.2 989.2 0.0
23/02:00pm 11.0 8.7 5.7 70 2.5 NW 7 13 4 7 989.4 989.4 0.0
23/01:30pm 10.7 8.7 6.1 73 2.1 NNW 6 7 3 4 989.8 989.8 0.0
23/01:00pm 10.6 7.9 5.8 72 2.2 N 9 11 5 6 990.4 990.4 0.0

Latest Capital City Observations: Canberra | Sydney | Melbourne | Brisbane | Adelaide | Perth | Hobart | Darwin

Other Formats:

Comma delimited format used in spreadsheet applications
http://www.bom.gov.au/fwo/IDT60901/IDT60901.94988.axf

JavaScript Object Notation format (JSON) in row-major order
http://www.bom.gov.au/fwo/IDT60901/IDT60901.94988.json